Time;durP1;ratioP1;P1;durP2;ratioP2;P2;SDS_P1;SDS_P2;PMS_P1;PMS_P2;Temp;Humidity;BMP_temperature;BMP_pressure;BME280_temperature;BME280_humidity;BME280_pressure;Samples;Min_cycle;Max_cycle;Signal;HPM_P1;HPM_P2
2022/05/13 00:00:33;;;;;;;9.55;2.15;;;12.00;1.00;;;;;;10439137;28;20224;-82
2022/05/13 00:05:54;;;;;;;4.85;2.15;;;12.00;1.00;;;;;;10424664;28;20238;-82
2022/05/13 00:11:16;;;;;;;6.38;2.50;;;12.00;1.00;;;;;;10410541;28;20192;-82
2022/05/13 00:16:38;;;;;;;6.65;2.55;;;12.10;1.00;;;;;;10424713;28;20195;-82
2022/05/13 00:22:00;;;;;;;5.57;2.42;;;12.10;1.00;;;;;;10439330;28;20543;-82
2022/05/13 00:27:22;;;;;;;5.47;2.10;;;12.10;1.00;;;;;;10437963;28;20192;-81
2022/05/13 00:32:44;;;;;;;6.93;1.77;;;12.10;1.00;;;;;;10423109;28;20515;-81
2022/05/13 00:38:06;;;;;;;3.25;1.27;;;12.20;1.00;;;;;;10423403;28;20201;-82
2022/05/13 00:43:41;;;;;;;5.55;2.00;;;12.20;1.00;;;;;;10437748;28;20217;-81
2022/05/13 00:49:06;;;;;;;8.25;2.22;;;12.20;1.00;;;;;;10437071;28;20194;-82
2022/05/13 00:54:29;;;;;;;6.40;1.90;;;12.20;1.00;;;;;;10436738;28;20206;-81
2022/05/13 00:59:53;;;;;;;6.85;2.70;;;12.30;1.00;;;;;;10422973;28;20200;-82
2022/05/13 01:05:17;;;;;;;2.58;1.77;;;12.40;1.00;;;;;;10436459;28;20330;-81
2022/05/13 01:10:41;;;;;;;7.43;2.10;;;12.40;1.00;;;;;;10408699;28;20274;-82
2022/05/13 01:16:04;;;;;;;5.32;2.30;;;12.40;1.00;;;;;;10422516;28;20220;-82
2022/05/13 01:21:29;;;;;;;4.20;1.80;;;12.50;1.00;;;;;;10436316;28;20523;-85
2022/05/13 01:26:51;;;;;;;3.45;1.50;;;12.50;1.00;;;;;;10408494;28;20281;-82
2022/05/13 01:32:12;;;;;;;3.55;1.83;;;12.60;1.00;;;;;;10421751;28;20344;-85
2022/05/13 01:37:34;;;;;;;3.97;2.10;;;12.50;1.00;;;;;;10423990;28;20259;-83
2022/05/13 01:42:55;;;;;;;6.47;1.58;;;12.50;1.00;;;;;;10408874;28;20579;-82
2022/05/13 01:48:17;;;;;;;3.67;1.75;;;12.60;1.00;;;;;;10421413;28;20514;-82
2022/05/13 01:53:40;;;;;;;6.15;1.55;;;12.60;1.00;;;;;;10436047;28;20224;-82
2022/05/13 01:59:01;;;;;;;5.57;1.73;;;12.60;1.00;;;;;;10435757;28;20190;-82
2022/05/13 02:04:22;;;;;;;3.97;1.52;;;12.60;1.00;;;;;;10420652;28;20226;-81
2022/05/13 02:09:44;;;;;;;2.65;1.48;;;12.60;1.00;;;;;;10442104;28;20242;-81
2022/05/13 02:15:07;;;;;;;4.28;1.60;;;12.60;1.00;;;;;;10429305;28;20251;-81
2022/05/13 02:20:28;;;;;;;2.45;1.60;;;12.60;1.00;;;;;;10428968;28;20360;-84
2022/05/13 02:25:51;;;;;;;5.55;1.70;;;12.60;1.00;;;;;;10443013;28;20242;-82
2022/05/13 02:31:13;;;;;;;2.00;1.40;;;12.60;1.00;;;;;;10441995;28;20200;-83
2022/05/13 02:36:34;;;;;;;3.13;1.50;;;12.50;1.00;;;;;;10428692;28;20189;-83
2022/05/13 02:41:56;;;;;;;5.88;1.65;;;12.50;1.00;;;;;;10428901;28;20499;-83
2022/05/13 02:47:17;;;;;;;3.50;1.40;;;12.50;1.00;;;;;;10443480;28;20190;-84
2022/05/13 02:52:39;;;;;;;3.97;1.50;;;12.50;1.00;;;;;;10428218;28;20201;-82
2022/05/13 02:58:00;;;;;;;7.15;1.95;;;12.50;1.00;;;;;;10442144;28;20483;-82
2022/05/13 03:03:22;;;;;;;4.55;1.77;;;12.50;1.00;;;;;;10441054;28;20217;-82
2022/05/13 03:08:44;;;;;;;2.63;1.73;;;12.50;1.00;;;;;;10426713;28;20194;-82
2022/05/13 03:14:05;;;;;;;4.75;2.03;;;12.50;1.00;;;;;;10426923;28;20202;-81
2022/05/13 03:19:27;;;;;;;6.53;2.05;;;12.50;1.00;;;;;;10425012;28;20197;-81
2022/05/13 03:24:49;;;;;;;3.70;2.00;;;12.50;1.00;;;;;;10426283;28;20423;-82
2022/05/13 03:30:13;;;;;;;4.05;1.88;;;12.50;1.00;;;;;;10440156;28;20739;-83
2022/05/13 03:35:35;;;;;;;5.00;1.55;;;12.50;1.00;;;;;;10425572;28;20300;-83
2022/05/13 03:40:56;;;;;;;4.28;1.67;;;12.50;1.00;;;;;;10425587;28;20206;-85
2022/05/13 03:46:17;;;;;;;7.60;1.90;;;12.50;1.00;;;;;;10439816;28;20221;-82
2022/05/13 03:51:40;;;;;;;3.38;1.23;;;12.50;1.00;;;;;;10398738;28;20240;-85
2022/05/13 03:57:02;;;;;;;3.83;1.75;;;12.60;1.00;;;;;;10412170;28;20251;-84
2022/05/13 04:02:25;;;;;;;4.57;1.55;;;12.50;1.00;;;;;;10418183;28;20217;-85
2022/05/13 04:19:06;;;;;;;5.65;1.67;;;12.60;1.00;;;;;;10424536;28;20205;-85
2022/05/13 04:24:28;;;;;;;6.22;1.95;;;12.60;1.00;;;;;;10424412;28;20230;-82
2022/05/13 04:29:49;;;;;;;7.07;2.00;;;12.70;1.00;;;;;;10423526;28;20232;-83
2022/05/13 04:35:11;;;;;;;4.65;1.50;;;12.80;1.00;;;;;;10436563;28;20237;-82
2022/05/13 04:40:32;;;;;;;4.13;1.50;;;12.80;1.00;;;;;;10423598;28;20221;-81
2022/05/13 04:45:54;;;;;;;3.20;1.45;;;12.80;1.00;;;;;;10422958;28;20497;-82
2022/05/13 04:51:19;;;;;;;3.63;1.30;;;12.90;1.00;;;;;;10423700;28;20246;-84
2022/05/13 04:56:41;;;;;;;1.60;1.10;;;13.00;1.00;;;;;;10409860;28;20760;-85
2022/05/13 05:02:02;;;;;;;2.90;1.35;;;13.10;1.00;;;;;;10410142;28;20194;-82
2022/05/13 05:07:24;;;;;;;5.68;1.70;;;13.20;1.00;;;;;;10423644;28;20492;-85
2022/05/13 05:12:46;;;;;;;3.20;1.38;;;13.20;1.00;;;;;;10409105;28;20305;-86
2022/05/13 05:18:07;;;;;;;4.57;1.20;;;13.30;1.00;;;;;;10436732;28;20189;-83
2022/05/13 05:23:31;;;;;;;4.47;1.30;;;13.40;1.00;;;;;;10436298;28;20231;-83
2022/05/13 05:28:54;;;;;;;5.38;1.45;;;13.40;1.00;;;;;;10409104;28;20583;-86
2022/05/13 05:34:17;;;;;;;5.10;1.75;;;13.50;1.00;;;;;;10426177;28;20310;-87
2022/05/13 05:39:39;;;;;;;4.13;1.80;;;13.50;1.00;;;;;;10436250;28;20414;-86
2022/05/13 05:45:00;;;;;;;2.63;1.40;;;13.70;1.00;;;;;;10429373;28;20319;-86
2022/05/13 05:50:22;;;;;;;7.88;2.17;;;13.80;1.00;;;;;;10389685;28;20195;-87
2022/05/13 06:01:23;;;;;;;6.28;1.83;;;13.90;99.90;;;;;;10405854;28;20492;-86
2022/05/13 06:06:44;;;;;;;4.47;1.33;;;13.90;1.00;;;;;;10416364;28;20301;-85
2022/05/13 06:12:07;;;;;;;2.95;1.20;;;13.90;99.90;;;;;;10430084;28;20200;-87
2022/05/13 06:17:29;;;;;;;3.20;1.38;;;14.10;99.90;;;;;;10444052;28;20378;-86
2022/05/13 06:22:50;;;;;;;4.00;1.33;;;14.30;99.90;;;;;;10429801;28;20223;-84
2022/05/13 06:28:12;;;;;;;2.80;1.48;;;14.50;99.90;;;;;;10443218;28;20256;-87
2022/05/13 06:33:34;;;;;;;4.43;1.83;;;14.80;1.00;;;;;;10427763;28;20230;-86
2022/05/13 06:38:56;;;;;;;5.80;1.55;;;14.90;14.70;;;;;;10442759;28;20364;-86
2022/05/13 06:44:18;;;;;;;4.97;1.73;;;15.10;1.00;;;;;;10428111;28;20518;-86
2022/05/13 06:49:39;;;;;;;5.63;1.58;;;15.40;99.90;;;;;;10415835;28;20195;-86
2022/05/13 06:55:01;;;;;;;4.97;1.30;;;15.50;1.00;;;;;;10414900;28;20499;-86
2022/05/13 07:00:21;;;;;;;3.88;1.55;;;15.60;1.00;;;;;;10401150;28;20377;-86
2022/05/13 07:05:44;;;;;;;4.18;1.20;;;15.80;1.00;;;;;;10440524;28;20452;-87
2022/05/13 07:11:05;;;;;;;3.13;1.35;;;15.60;99.90;;;;;;10424201;28;20492;-86
2022/05/13 07:16:27;;;;;;;5.10;1.30;;;15.50;1.00;;;;;;10425540;28;20308;-85
2022/05/13 07:21:48;;;;;;;5.20;1.50;;;15.40;99.90;;;;;;10415335;28;20203;-80
2022/05/13 07:27:10;;;;;;;58.78;4.45;;;15.30;99.90;;;;;;10368496;28;20235;-83
2022/05/13 07:32:31;;;;;;;3.78;1.30;;;15.40;99.90;;;;;;10425576;28;20240;-83
2022/05/13 07:37:53;;;;;;;7.18;1.10;;;15.40;99.90;;;;;;10422344;28;20304;-81
2022/05/13 07:43:14;;;;;;;4.78;1.33;;;16.00;1.00;;;;;;10421498;28;20227;-83
2022/05/13 07:48:39;;;;;;;1.75;0.93;;;16.60;1.00;;;;;;10390336;28;20250;-83
2022/05/13 07:54:01;;;;;;;6.28;1.00;;;16.70;99.90;;;;;;10380386;28;20239;-85
2022/05/13 07:59:22;;;;;;;14.15;1.50;;;16.50;1.00;;;;;;10393613;28;20279;-81
2022/05/13 08:04:43;;;;;;;7.07;1.30;;;17.50;1.00;;;;;;10412836;28;20228;-87
2022/05/13 08:10:06;;;;;;;3.20;1.35;;;18.00;99.70;;;;;;10420870;28;20202;-84
2022/05/13 08:15:27;;;;;;;5.40;1.42;;;17.90;1.00;;;;;;10416327;28;20529;-86
2022/05/13 08:20:50;;;;;;;2.90;1.30;;;17.80;1.00;;;;;;10435415;28;20553;-87
2022/05/13 08:26:11;;;;;;;4.90;1.58;;;17.40;1.00;;;;;;10379251;28;20289;-90
2022/05/13 08:31:33;;;;;;;2.83;1.13;;;17.30;1.00;;;;;;10384561;28;20205;-79
2022/05/13 08:36:54;;;;;;;3.63;1.10;;;17.10;99.90;;;;;;10425136;28;20222;-88
2022/05/13 08:42:24;;;;;;;6.55;1.30;;;16.60;99.90;;;;;;10393441;28;20196;-91
2022/05/13 08:47:55;;;;;;;2.78;0.80;;;16.20;99.90;;;;;;10379447;28;20211;-83
2022/05/13 08:53:35;;;;;;;2.88;1.10;;;15.90;99.90;;;;;;10395875;28;20204;-84
2022/05/13 08:59:00;;;;;;;13.63;1.70;;;15.80;1.00;;;;;;10418739;28;20199;-86
2022/05/13 09:04:37;;;;;;;1.55;0.90;;;15.70;1.00;;;;;;10432065;28;20234;-83
2022/05/13 09:10:01;;;;;;;2.50;1.13;;;15.70;1.00;;;;;;10432293;28;20492;-84
2022/05/13 09:15:42;;;;;;;3.42;1.33;;;15.90;1.00;;;;;;10427605;28;20223;-85
2022/05/13 09:21:15;;;;;;;3.78;1.20;;;15.80;1.00;;;;;;10417978;28;20376;-85
2022/05/13 09:26:38;;;;;;;4.60;1.05;;;15.60;99.90;;;;;;10403844;28;20227;-85
2022/05/13 09:32:01;;;;;;;3.10;1.05;;;15.40;99.90;;;;;;10418321;28;20596;-83
2022/05/13 09:37:29;;;;;;;4.95;1.52;;;15.30;99.90;;;;;;10450272;28;20206;-85
2022/05/13 09:42:54;;;;;;;5.18;1.45;;;15.30;1.00;;;;;;10403558;28;20210;-83
2022/05/13 09:48:18;;;;;;;10.32;2.65;;;15.20;1.00;;;;;;10402110;28;20215;-85
2022/05/13 09:53:39;;;;;;;2.63;1.27;;;15.30;1.00;;;;;;10401723;28;20207;-85
2022/05/13 09:59:06;;;;;;;7.80;1.40;;;15.70;1.00;;;;;;10417403;28;20271;-84
2022/05/13 10:04:28;;;;;;;4.47;0.95;;;16.00;1.00;;;;;;10390179;28;20254;-85
2022/05/13 10:15:43;;;;;;;3.47;1.25;;;16.60;1.00;;;;;;10416702;28;20253;-83
2022/05/13 10:21:18;;;;;;;4.65;1.95;;;17.70;99.90;;;;;;10416208;28;20210;-84
2022/05/13 10:26:42;;;;;;;2.90;1.10;;;17.70;99.90;;;;;;10402648;28;20599;-85
2022/05/13 10:32:32;;;;;;;3.10;1.45;;;17.30;99.90;;;;;;10414380;28;20237;-84
2022/05/13 10:38:00;;;;;;;3.35;1.20;;;16.90;1.00;;;;;;10310259;28;20221;-85
2022/05/13 10:43:40;;;;;;;4.13;1.00;;;16.70;1.00;;;;;;10282674;28;20248;-84
2022/05/13 10:49:02;;;;;;;2.40;1.10;;;16.60;1.00;;;;;;10303294;28;20648;-83
2022/05/13 10:54:34;;;;;;;7.32;1.60;;;16.50;1.00;;;;;;10323356;28;20210;-84
2022/05/13 10:59:58;;;;;;;2.70;1.10;;;16.30;1.00;;;;;;10322552;28;20212;-84
2022/05/13 11:05:33;;;;;;;5.63;1.65;;;16.30;9.90;;;;;;10325301;28;20259;-84
2022/05/13 11:11:24;;;;;;;8.95;2.13;;;16.20;14.70;;;;;;10343948;28;20500;-83
2022/05/13 11:16:49;;;;;;;5.80;1.75;;;16.00;16.20;;;;;;10420790;28;20225;-83
2022/05/13 11:22:39;;;;;;;0.70;0.70;;;15.80;50.00;;;;;;10422058;28;20536;-87
2022/05/13 11:28:32;;;;;;;2.90;1.10;;;15.70;92.50;;;;;;10423093;28;20250;-85
2022/05/13 11:34:02;;;;;;;7.55;1.45;;;15.60;99.90;;;;;;10418722;28;20252;-84
2022/05/13 11:39:44;;;;;;;2.60;1.33;;;15.60;99.90;;;;;;10412777;28;20203;-84
2022/05/13 11:45:16;;;;;;;4.03;1.02;;;15.80;99.90;;;;;;10436198;28;20241;-85
2022/05/13 11:50:41;;;;;;;8.50;2.40;;;15.90;99.90;;;;;;10436132;28;20257;-88
2022/05/13 11:56:15;;;;;;;9.23;1.83;;;15.60;99.90;;;;;;10403668;28;20282;-85
2022/05/13 12:01:37;;;;;;;3.28;1.20;;;15.50;99.90;;;;;;10432546;28;20498;-85
2022/05/13 12:07:20;;;;;;;3.90;1.30;;;15.50;99.90;;;;;;10421203;28;20238;-85
2022/05/13 12:12:55;;;;;;;4.32;1.27;;;15.60;99.90;;;;;;10401145;28;20280;-87
2022/05/13 12:18:34;;;;;;;2.83;1.35;;;15.70;99.90;;;;;;10417907;28;20210;-85
2022/05/13 12:24:02;;;;;;;6.80;1.40;;;16.00;99.90;;;;;;10425347;28;20253;-84
2022/05/13 12:29:45;;;;;;;2.58;1.13;;;16.50;99.90;;;;;;10432440;28;20217;-86
2022/05/13 12:41:43;;;;;;;3.65;1.17;;;18.20;1.00;;;;;;10405906;28;20180;-85
2022/05/13 12:47:17;;;;;;;9.20;3.85;;;18.10;1.00;;;;;;10416512;28;20291;-83
2022/05/13 12:52:41;;;;;;;6.55;1.70;;;18.00;1.00;;;;;;10416586;28;20218;-85
2022/05/13 12:58:05;;;;;;;6.28;2.40;;;17.60;1.00;;;;;;10411953;28;20206;-83
2022/05/13 13:03:27;;;;;;;5.75;1.45;;;17.10;1.00;;;;;;10438730;28;20217;-83
2022/05/13 13:08:52;;;;;;;4.60;1.30;;;16.70;1.00;;;;;;10413609;28;20250;-83
2022/05/13 13:14:20;;;;;;;2.35;1.25;;;16.50;1.00;;;;;;10400668;28;20311;-86
2022/05/13 13:19:48;;;;;;;3.40;1.20;;;16.40;1.00;;;;;;10432602;28;20238;-85
2022/05/13 13:25:24;;;;;;;4.22;1.30;;;16.20;1.00;;;;;;10417521;28;20229;-86
2022/05/13 13:30:58;;;;;;;5.90;1.25;;;16.10;1.00;;;;;;10415480;28;20242;-87
2022/05/13 13:36:32;;;;;;;1.95;1.10;;;16.10;1.00;;;;;;10417057;28;20241;-85
2022/05/13 13:42:11;;;;;;;2.08;1.10;;;16.20;19.20;;;;;;10418629;28;20195;-88
2022/05/13 13:47:44;;;;;;;3.22;1.42;;;16.50;57.90;;;;;;10401024;28;20222;-85
2022/05/13 13:53:08;;;;;;;5.82;2.80;;;16.90;45.90;;;;;;10399070;28;20506;-87
2022/05/13 13:58:38;;;;;;;3.38;1.17;;;17.20;11.40;;;;;;10402163;28;20211;-84
2022/05/13 14:04:17;;;;;;;5.60;1.67;;;17.60;1.00;;;;;;10433496;28;20310;-83
2022/05/13 14:09:42;;;;;;;3.13;1.08;;;17.80;1.00;;;;;;10421929;28;20197;-92
2022/05/13 14:15:08;;;;;;;2.22;1.10;;;18.00;1.00;;;;;;10396367;28;20293;-84
2022/05/13 14:20:35;;;;;;;2.83;1.27;;;18.30;1.00;;;;;;10424366;28;20243;-83
2022/05/13 14:26:00;;;;;;;4.47;1.63;;;18.00;1.00;;;;;;10452887;28;20420;-85
2022/05/13 14:31:32;;;;;;;5.38;2.75;;;17.50;1.00;;;;;;10400466;28;20201;-85
2022/05/13 14:36:58;;;;;;;2.83;1.98;;;17.30;1.00;;;;;;10427850;28;20211;-84
2022/05/13 14:42:40;;;;;;;5.10;1.63;;;17.20;1.00;;;;;;10423357;28;20204;-86
2022/05/13 14:48:16;;;;;;;7.90;2.35;;;17.10;1.00;;;;;;10409193;28;20235;-85
2022/05/13 14:53:52;;;;;;;4.10;1.42;;;17.00;1.00;;;;;;10428170;28;20209;-82
2022/05/13 14:59:20;;;;;;;5.75;1.67;;;16.80;1.00;;;;;;10408406;28;20522;-86
2022/05/13 15:04:56;;;;;;;8.85;1.92;;;16.60;1.00;;;;;;10440474;28;20231;-89
2022/05/13 15:10:24;;;;;;;5.10;1.30;;;16.40;1.00;;;;;;10416574;28;20200;-86
2022/05/13 15:15:45;;;;;;;2.92;1.50;;;16.20;1.00;;;;;;10415227;28;20580;-85
2022/05/13 15:21:08;;;;;;;1.33;1.08;;;16.00;1.00;;;;;;10428781;28;20192;-85
2022/05/13 15:26:31;;;;;;;5.50;1.40;;;15.80;1.00;;;;;;10453509;28;20229;-84
2022/05/13 15:31:52;;;;;;;4.53;1.50;;;15.70;1.00;;;;;;10427289;28;20254;-84
2022/05/13 15:37:20;;;;;;;2.70;1.60;;;15.50;99.90;;;;;;10426323;28;20200;-84
2022/05/13 15:42:41;;;;;;;4.70;1.40;;;15.30;1.00;;;;;;10440190;28;20269;-84
2022/05/13 15:48:06;;;;;;;5.47;1.75;;;15.20;1.00;;;;;;10426798;28;20261;-85
2022/05/13 15:53:28;;;;;;;6.60;2.13;;;15.20;99.90;;;;;;10414447;28;20519;-88
2022/05/13 15:58:49;;;;;;;6.45;1.75;;;15.10;99.90;;;;;;10432737;28;20215;-88
2022/05/13 16:04:28;;;;;;;4.57;2.05;;;15.10;1.00;;;;;;10427200;28;20249;-86
2022/05/13 16:09:50;;;;;;;5.90;2.38;;;14.90;1.00;;;;;;10425767;28;20242;-84
2022/05/13 16:15:14;;;;;;;5.05;1.92;;;14.80;1.00;;;;;;10410752;28;20208;-85
2022/05/13 16:20:38;;;;;;;6.35;2.22;;;14.70;1.00;;;;;;10425133;28;20210;-85
2022/05/13 16:26:00;;;;;;;7.72;2.08;;;14.50;1.00;;;;;;10411426;28;20251;-87
2022/05/13 16:31:22;;;;;;;3.95;2.20;;;14.50;99.90;;;;;;10411707;28;20203;-89
2022/05/13 16:42:27;;;;;;;4.38;2.45;;;14.30;99.90;;;;;;10424698;28;20495;-87
2022/05/13 16:47:50;;;;;;;3.60;2.03;;;14.30;99.90;;;;;;10427006;28;20220;-86
2022/05/13 16:53:12;;;;;;;4.35;2.22;;;14.30;99.90;;;;;;10431355;28;20554;-86
2022/05/13 16:58:34;;;;;;;3.33;2.30;;;14.40;99.90;;;;;;10424031;28;20200;-86
2022/05/13 17:03:55;;;;;;;4.88;2.30;;;14.30;99.90;;;;;;10409818;28;20222;-85
2022/05/13 17:20:37;;;;;;;3.17;2.08;;;13.90;99.90;;;;;;10422629;28;20208;-85
2022/05/13 17:25:58;;;;;;;3.78;1.48;;;13.80;1.00;;;;;;10436919;28;20309;-85
2022/05/13 17:31:20;;;;;;;4.05;1.70;;;13.80;1.00;;;;;;10436264;28;20245;-85
2022/05/13 17:36:42;;;;;;;2.70;1.40;;;13.80;1.00;;;;;;10422673;28;20203;-85
2022/05/13 17:42:05;;;;;;;3.42;1.65;;;13.90;1.00;;;;;;10408790;28;20197;-85
2022/05/13 17:47:26;;;;;;;5.38;1.42;;;14.00;99.90;;;;;;10422371;28;20460;-86
2022/05/13 17:52:49;;;;;;;2.28;1.17;;;14.00;99.90;;;;;;10416611;28;20194;-85
2022/05/13 17:58:10;;;;;;;8.30;1.63;;;13.80;99.90;;;;;;10409021;28;20202;-85
2022/05/13 18:03:32;;;;;;;8.80;5.13;;;13.70;99.90;;;;;;10422710;28;20380;-85
2022/05/13 18:08:54;;;;;;;39.08;32.08;;;13.60;99.90;;;;;;10409065;28;20212;-87
2022/05/13 18:14:17;;;;;;;22.00;15.90;;;13.40;99.90;;;;;;10422207;28;20205;-85
2022/05/13 18:19:40;;;;;;;9.10;4.97;;;13.30;1.00;;;;;;10421446;28;20201;-86
2022/05/13 18:25:03;;;;;;;7.43;2.70;;;13.10;1.00;;;;;;10408468;28;20300;-85
2022/05/13 18:30:24;;;;;;;12.30;7.03;;;13.00;1.00;;;;;;10421715;28;20218;-85
2022/05/13 18:35:46;;;;;;;9.15;4.32;;;12.90;1.00;;;;;;10422084;28;20530;-86
2022/05/13 18:46:48;;;;;;;3.50;2.13;;;12.70;1.00;;;;;;10435776;28;20216;-85
2022/05/13 18:52:09;;;;;;;3.75;2.30;;;12.70;1.00;;;;;;10427412;28;20228;-86
2022/05/13 18:57:31;;;;;;;2.70;1.65;;;12.60;1.00;;;;;;10429196;28;20201;-86
2022/05/13 19:02:53;;;;;;;5.63;1.83;;;12.50;1.00;;;;;;10429663;28;20205;-85
2022/05/13 19:08:15;;;;;;;5.20;2.00;;;12.40;1.00;;;;;;10415851;28;20237;-85
2022/05/13 19:13:36;;;;;;;4.38;2.17;;;12.40;1.00;;;;;;10439570;28;20239;-85
2022/05/13 19:18:58;;;;;;;5.50;3.53;;;12.40;1.00;;;;;;10428363;28;20196;-86
2022/05/13 19:24:20;;;;;;;13.38;8.57;;;12.40;1.00;;;;;;10414369;28;20313;-86
2022/05/13 19:29:41;;;;;;;6.35;4.55;;;12.40;1.00;;;;;;10413560;28;20378;-85
2022/05/13 19:35:04;;;;;;;6.75;3.55;;;12.40;1.00;;;;;;10428454;28;20258;-85
2022/05/13 19:40:25;;;;;;;8.52;4.30;;;12.40;1.00;;;;;;10427319;28;20402;-85
2022/05/13 19:45:48;;;;;;;10.45;4.88;;;12.50;1.00;;;;;;10427591;28;20221;-85
2022/05/13 19:51:09;;;;;;;6.03;3.90;;;12.40;1.00;;;;;;10386088;28;20415;-85
2022/05/13 19:56:31;;;;;;;5.78;2.60;;;12.30;1.00;;;;;;10386013;28;20496;-86
2022/05/13 20:01:53;;;;;;;5.82;2.65;;;12.20;1.00;;;;;;10371911;28;20279;-85
2022/05/13 20:12:54;;;;;;;4.68;2.60;;;12.30;1.00;;;;;;10408084;28;20229;-86
2022/05/13 20:18:18;;;;;;;5.22;2.25;;;12.30;1.00;;;;;;10422098;28;20246;-85
2022/05/13 20:23:40;;;;;;;5.15;2.50;;;12.40;4.10;;;;;;10426233;28;20209;-85
2022/05/13 20:29:03;;;;;;;5.95;2.75;;;12.30;4.20;;;;;;10425216;28;20227;-86
2022/05/13 20:34:26;;;;;;;7.22;3.22;;;12.40;5.10;;;;;;10425494;28;20244;-86
2022/05/13 20:39:47;;;;;;;5.68;2.72;;;12.40;13.60;;;;;;10425444;28;20202;-85
2022/05/13 20:45:09;;;;;;;8.48;3.67;;;12.30;26.30;;;;;;10424166;28;20548;-84
2022/05/13 20:50:30;;;;;;;7.32;3.97;;;12.30;46.10;;;;;;10383757;28;20192;-85
2022/05/13 20:55:52;;;;;;;8.95;3.40;;;12.20;50.80;;;;;;10397439;28;20214;-85
2022/05/13 21:01:13;;;;;;;6.00;3.33;;;12.20;65.10;;;;;;10397868;28;20191;-84
2022/05/13 21:06:35;;;;;;;10.10;3.13;;;12.30;73.60;;;;;;10383637;28;20229;-85
2022/05/13 21:11:56;;;;;;;4.20;2.35;;;12.20;74.00;;;;;;10398638;28;20242;-85
2022/05/13 21:17:20;;;;;;;6.13;2.38;;;12.20;82.50;;;;;;10410614;28;20200;-85
2022/05/13 21:22:41;;;;;;;5.38;2.97;;;12.20;84.40;;;;;;10371315;28;20512;-84
2022/05/13 21:28:04;;;;;;;5.68;2.78;;;12.20;85.40;;;;;;10372458;28;20228;-84
2022/05/13 21:39:08;;;;;;;7.07;3.42;;;12.20;97.80;;;;;;10382353;28;20278;-84
2022/05/13 21:44:29;;;;;;;5.20;2.40;;;12.20;99.90;;;;;;10402652;28;20200;-84
2022/05/13 21:49:51;;;;;;;6.85;2.33;;;12.30;99.90;;;;;;10385005;28;20260;-85
2022/05/13 21:55:12;;;;;;;7.30;3.00;;;12.20;99.90;;;;;;10382120;28;20506;-85
2022/05/13 22:00:34;;;;;;;6.15;2.97;;;12.20;99.90;;;;;;10382024;28;20208;-84
2022/05/13 22:05:56;;;;;;;7.00;2.83;;;12.10;99.90;;;;;;10391215;28;20225;-84
2022/05/13 22:11:17;;;;;;;8.38;3.25;;;12.20;99.90;;;;;;10422038;28;20261;-84
2022/05/13 22:16:39;;;;;;;5.72;2.72;;;12.10;99.90;;;;;;10421414;28;20236;-85
2022/05/13 22:22:00;;;;;;;5.25;2.65;;;12.00;99.90;;;;;;10422782;28;20249;-84
2022/05/13 22:27:22;;;;;;;15.13;3.33;;;11.90;99.90;;;;;;10414732;28;20235;-84
2022/05/13 22:32:43;;;;;;;8.35;2.90;;;11.80;99.90;;;;;;10429839;28;20612;-85
2022/05/13 22:38:28;;;;;;;5.97;2.60;;;11.70;99.90;;;;;;10432139;28;20211;-84
2022/05/13 22:43:50;;;;;;;4.57;2.33;;;11.70;99.90;;;;;;10428294;28;20566;-84
2022/05/13 22:49:11;;;;;;;4.70;2.47;;;11.70;99.90;;;;;;10415333;28;20234;-84
2022/05/13 22:54:34;;;;;;;5.40;2.10;;;11.70;99.90;;;;;;10428598;28;20272;-84
2022/05/13 22:59:56;;;;;;;5.20;2.47;;;11.80;99.90;;;;;;10428665;28;20199;-84
2022/05/13 23:05:17;;;;;;;7.33;2.53;;;11.80;99.90;;;;;;10442386;28;20300;-84
2022/05/13 23:16:21;;;;;;;5.47;2.30;;;11.90;99.90;;;;;;10425540;28;20256;-84
2022/05/13 23:21:43;;;;;;;7.50;2.93;;;11.80;99.90;;;;;;10427499;28;20468;-84
2022/05/13 23:27:06;;;;;;;4.97;1.93;;;11.80;99.90;;;;;;10427281;28;20229;-84
2022/05/13 23:32:27;;;;;;;5.05;1.90;;;11.80;99.90;;;;;;10428166;28;20311;-86
2022/05/13 23:37:53;;;;;;;6.37;2.40;;;11.70;99.90;;;;;;10415326;28;20234;-86
2022/05/13 23:43:15;;;;;;;5.40;2.28;;;11.70;99.90;;;;;;10427286;28;20272;-86
2022/05/13 23:48:38;;;;;;;6.60;2.43;;;11.70;99.90;;;;;;10427145;28;20533;-86
2022/05/13 23:59:43;;;;;;;3.90;1.90;;;11.60;99.90;;;;;;10426886;28;20440;-86
